x

Moss Landing, South Harbor, Ca (mlsc1) Weather Station

9:51pm - Wed 20th Mar 2019 All times are PDT. -7 hours from GMT.

  • Wind
    5mph, 10mph gusts
  • Air Temp 54°f
  • Sea Pressure 1019.1mb
  • Moss Landing, South Harbor, Ca
  • Moss Landing, South Harbor, Ca

More Historic Weather Station data

Upgrade to MSW Pro to gain access to the past 30 days of data for over 8000 Wavebouys and Weather Stations around the globe.

Join

Comparision Forecast

View Surf forecast
   
Wed 03/20 9:51pm 5 10 mph 1019.1mb 54f
7:47pm 6 15 mph 1018.4mb 55f
6:51pm 9 25 mph 1018.5mb 55f
6:36pm 10 26 mph 1018.4mb 55f
6:21pm 11 28 mph 1018.3mb 55f
4:56pm 10 28 mph 1017.9mb 56f
4:01pm 8 23 mph 1017.8mb 57f
3:06pm 8 22 mph 1017.9mb 58f
2:51pm 9 22 mph 1018mb 57f
1:56pm 9 24 mph 1018.4mb 56f
1:41pm 9 24 mph 1018.5mb 56f
12:46pm 9 24 mph 1018.7mb 56f
12:31pm 9 24 mph 1018.7mb 56f
11:36am 10 29 mph 1018.5mb 56f
11:21am 9 24 mph 1018.6mb 56f
10:26am 9 24 mph 1018.1mb 56f
10:11am 8 22 mph 1018mb 55f
9:16am 9 25 mph 1017.2mb 52f
9:01am 10 29 mph 1017mb 52f
8:46am 13 32 mph 1016.9mb 52f
8:31am 10 29 mph 1016.7mb 52f
8:06am 9 23 mph 1016.4mb 52f
6:43am 6 17 mph 1015.2mb 50f
5:45am 3 10 mph 1014.4mb 50f
5:18am 6 16 mph 1014.4mb 50f
5:03am 7 21 mph 1014.2mb 50f
4:50am 7 24 mph 1014mb 50f
4:33am 10 32 mph 1013.8mb 50f
4:08am 9 26 mph 1013.6mb 50f
3:53am 9 28 mph 1013.5mb 51f
3:39am 10 33 mph 1013.4mb 51f
3:24am 8 24 mph 1013.4mb 51f
2:58am 7 24 mph 1013.3mb 51f
12:08am 2 8 mph 1013.1mb 54f
Tue 03/19 10:43pm 7 17 mph 1012.5mb 55f
9:08pm 14 37 mph 1012.2mb 55f
8:53pm 15 44 mph 1012mb 55f
8:38pm 17 49 mph 1011.8mb 56f
8:23pm 11 30 mph 1011.6mb 58f
7:58pm 13 37 mph 1011.6mb 58f
7:15pm 16 45 mph 1010.7mb 58f
6:49pm 18 51 mph 1010.5mb 58f
6:34pm 22 61 mph 1010.3mb 58f
6:19pm 20 61 mph 1010mb 58f
6:04pm 13 43 mph 1010.2mb 57f
5:39pm 16 41 mph 1010.5mb 56f
5:24pm 22 54 mph 1010.5mb 58f
5:09pm 16 43 mph 1010.3mb 58f
3:31pm 9 25 mph 1010.6mb 58f
3:16pm 10 30 mph 1010.6mb 58f
3:01pm 9 26 mph 1010.6mb 59f
2:36pm 10 28 mph 1010.8mb 58f
2:21pm 11 30 mph 1010.9mb 59f
2:06pm 10 28 mph 1011.1mb 60f
1:52pm 8 22 mph 1011.1mb 65f
1:26pm 6 16 mph 1011.4mb 67f
1:12pm 7 22 mph 1011.5mb 66f
12:56pm 9 25 mph 1011.7mb 66f
12:02pm 9 25 mph 1012.7mb 63f
11:47am 5 16 mph 1013.1mb 61f
11:31am 6 17 mph 1013.4mb 59f
10:36am 6 16 mph 1013.8mb 55f
10:23am 5 11 mph 1013.8mb 54f
9:56am 5 16 mph 1014mb 53f
5:41am 6 16 mph 1013.7mb 50f
4:34am 3 9 mph 1013.7mb 49f
3:37am 3 10 mph 1013.9mb 49f
Mon 03/18 8:52pm 7 20 mph 1016.3mb 53f
8:06pm 7 18 mph 1015.7mb 52f
6:32pm 3 10 mph 1014.6mb 53f
6:17pm 6 17 mph 1014.5mb 52f
6:02pm 5 10 mph 1014.7mb 53f
5:47pm 1 5 mph 1014.7mb 53f
5:22pm 3 10 mph 1014.7mb 54f
5:07pm 6 20 mph 1014.8mb 54f
4:52pm 7 21 mph 1014.9mb 53f
4:37pm 7 21 mph 1015mb 54f
4:12pm 11 30 mph 1015.4mb 54f
3:57pm 10 31 mph 1015.5mb 53f
3:02pm 11 32 mph 1015.6mb 54f
2:47pm 14 38 mph 1015.5mb 54f
2:32pm 14 38 mph 1015.6mb 54f
2:17pm 15 37 mph 1015.6mb 54f
1:52pm 11 32 mph 1015.7mb 54f
1:37pm 15 40 mph 1015.7mb 54f
1:22pm 14 38 mph 1015.6mb 54f
1:07pm 14 36 mph 1015.6mb 54f
12:42pm 15 39 mph 1015.6mb 56f
12:27pm 11 30 mph 1015.6mb 57f
11:32am 6 16 mph 1015.7mb 60f
11:17am 6 16 mph 1015.7mb 68f
11:02am 6 13 mph 1015.7mb 66f
10:47am 6 17 mph 1015.8mb 65f
10:22am 6 17 mph 1015.9mb 63f
10:07am 7 21 mph 1015.9mb 62f
9:52am 8 28 mph 1016mb 60f
9:37am 7 22 mph 1016mb 59f
9:12am 9 28 mph 1015.8mb 57f
8:57am 8 23 mph 1015.9mb 56f
8:42am 10 31 mph 1015.9mb 56f
5:26am 5 13 mph 1015.2mb 52f
4:01am 2 7 mph 1015.3mb 56f
3:06am 5 15 mph 1015.7mb 56f
2:52am 2 8 mph 1015.8mb 55f
1:28am 2 5 mph 1016.1mb 51f
12:46am 3 9 mph 1016.6mb 52f
Sun 03/17 11:51pm  -  0 mph 1017mb 54f
11:36pm  -  0 mph 1017mb 53f
10:41pm 3 8 mph 1017.2mb 53f
10:26pm 3 8 mph 1017.2mb 54f
10:11pm 2 6 mph 1017.2mb 55f
9:57pm  -  0 mph 1017.2mb 55f
9:31pm 3 8 mph 1017.1mb 55f
9:16pm 5 13 mph 1017mb 56f
9:01pm 5 10 mph 1017mb 56f
8:46pm 3 9 mph 1016.9mb 56f
8:21pm 3 8 mph 1016.8mb 56f
8:06pm 5 11 mph 1016.7mb 56f
7:52pm 7 16 mph 1016.4mb 56f
7:36pm 3 10 mph 1016.4mb 58f
7:11pm 5 11 mph 1016.3mb 58f
6:27pm  -  2 mph 1015.9mb 60f
6:01pm 3 11 mph 1015.8mb 59f
5:46pm 3 11 mph 1015.9mb 59f
5:31pm 5 11 mph 1016mb 59f
5:16pm 6 16 mph 1016.1mb 59f
4:51pm 8 20 mph 1016.4mb 58f
4:36pm 8 21 mph 1016.5mb 58f
4:21pm 8 22 mph 1016.6mb 58f
4:06pm 7 21 mph 1016.7mb 59f
3:41pm 8 22 mph 1016.8mb 58f
2:16pm 9 23 mph 1017.5mb 58f
2:01pm 8 23 mph 1017.7mb 59f
1:06pm 7 18 mph 1018.4mb 58f
12:51pm 6 18 mph 1018.6mb 58f
11:56am 5 15 mph 1019mb 59f
11:41am 6 16 mph 1019.2mb 59f
10:46am 7 20 mph 1019.7mb 62f
10:31am 9 25 mph 1019.8mb 61f
9:36am 5 11 mph 1020.3mb 56f
9:21am 5 13 mph 1020.3mb 55f
8:26am 3 9 mph 1020.4mb 51f
8:12am 3 10 mph 1020.3mb 49f
7:56am 2 5 mph 1020.3mb 47f
5:52am  -  1 mph 1019.6mb 49f
5:38am 3 10 mph 1019.5mb 49f